createdAt,value
2018-03-27T00:00:22.258Z,3.66
2018-03-27T00:02:49.719Z,3.64
2018-03-27T00:05:17.287Z,3.62
2018-03-27T00:07:44.761Z,3.56
2018-03-27T00:10:12.235Z,3.51
2018-03-27T00:12:40.054Z,3.51
2018-03-27T00:15:07.607Z,3.49
2018-03-27T00:17:35.075Z,3.58
2018-03-27T00:20:02.537Z,3.55
2018-03-27T00:22:30.044Z,3.54
2018-03-27T00:24:57.501Z,3.54
2018-03-27T00:27:36.890Z,3.58
2018-03-27T00:30:16.213Z,3.55
2018-03-27T00:32:55.494Z,3.48
2018-03-27T00:35:34.886Z,3.31
2018-03-27T00:38:14.178Z,3.30
2018-03-27T00:40:42.861Z,3.29
2018-03-27T00:43:13.122Z,3.28
2018-03-27T00:45:40.684Z,3.27
2018-03-27T00:48:08.189Z,3.25
2018-03-27T00:50:35.706Z,3.22
2018-03-27T00:53:03.320Z,3.24
2018-03-27T00:55:30.815Z,3.17
2018-03-27T00:57:58.269Z,3.17
2018-03-27T01:00:25.784Z,3.24
2018-03-27T01:02:53.250Z,3.27
2018-03-27T01:05:20.748Z,3.31
2018-03-27T01:07:48.204Z,3.32
2018-03-27T01:10:15.666Z,3.27
2018-03-27T01:12:43.218Z,3.30
2018-03-27T01:15:10.674Z,3.30
2018-03-27T01:17:38.136Z,3.28
2018-03-27T01:20:05.653Z,3.31
2018-03-27T01:22:33.122Z,3.33
2018-03-27T01:25:00.661Z,3.34
2018-03-27T01:27:28.163Z,3.38
2018-03-27T01:29:55.718Z,3.37
2018-03-27T01:32:23.173Z,3.31
2018-03-27T01:34:50.747Z,3.35
2018-03-27T01:37:18.265Z,3.35
2018-03-27T01:39:45.763Z,3.33
2018-03-27T01:42:13.222Z,3.40
2018-03-27T01:44:40.774Z,3.51
2018-03-27T01:47:08.330Z,3.60
2018-03-27T01:49:35.792Z,3.49
2018-03-27T01:52:03.282Z,3.43
2018-03-27T01:54:30.741Z,3.46
2018-03-27T01:56:58.195Z,3.51
2018-03-27T01:59:25.687Z,3.55
2018-03-27T02:01:53.139Z,3.59
2018-03-27T02:04:20.634Z,3.56
2018-03-27T02:06:48.287Z,3.55
2018-03-27T02:09:15.733Z,3.55
2018-03-27T02:11:48.946Z,3.55
2018-03-27T02:14:22.003Z,3.53
2018-03-27T02:16:55.094Z,3.53
2018-03-27T02:19:28.266Z,3.33
2018-03-27T02:21:55.186Z,3.31
2018-03-27T02:24:26.593Z,3.39
2018-03-27T02:26:54.069Z,3.44
2018-03-27T02:29:21.554Z,3.42
2018-03-27T02:31:49.016Z,3.43
2018-03-27T02:34:16.595Z,3.45
2018-03-27T02:36:44.070Z,3.43
2018-03-27T02:39:11.612Z,3.43
2018-03-27T02:41:39.095Z,3.29
2018-03-27T02:44:06.550Z,3.20
2018-03-27T02:46:34.044Z,3.15
2018-03-27T02:49:01.595Z,3.14
2018-03-27T02:51:29.050Z,3.22
2018-03-27T02:53:56.549Z,3.15
2018-03-27T02:56:24.083Z,3.17
2018-03-27T02:58:51.535Z,3.08
2018-03-27T03:01:19.006Z,3.13
2018-03-27T03:03:46.471Z,3.12
2018-03-27T03:06:13.993Z,3.05
2018-03-27T03:08:41.478Z,3.08
2018-03-27T03:11:08.966Z,3.09
2018-03-27T03:13:36.465Z,3.12
2018-03-27T03:16:03.945Z,3.13
2018-03-27T03:18:31.415Z,3.15
2018-03-27T03:20:58.986Z,3.15
2018-03-27T03:23:26.445Z,3.13
2018-03-27T03:25:53.903Z,3.16
2018-03-27T03:28:21.446Z,3.17
2018-03-27T03:30:48.902Z,3.19
2018-03-27T03:33:16.368Z,3.16
2018-03-27T03:35:43.870Z,3.18
2018-03-27T03:38:11.343Z,3.25
2018-03-27T03:40:38.795Z,3.31
2018-03-27T03:43:06.283Z,3.41
2018-03-27T03:45:33.762Z,3.45
2018-03-27T03:48:01.220Z,3.47
2018-03-27T03:50:28.694Z,3.45
2018-03-27T03:52:56.172Z,3.46
2018-03-27T03:55:23.646Z,3.45
2018-03-27T03:57:51.198Z,3.44
2018-03-27T04:00:18.762Z,3.47
2018-03-27T04:02:46.254Z,3.44
2018-03-27T04:05:13.724Z,3.37
2018-03-27T04:07:41.229Z,3.33
2018-03-27T04:10:08.690Z,3.24
2018-03-27T04:12:36.152Z,3.21
2018-03-27T04:15:03.714Z,3.12
2018-03-27T04:17:31.163Z,3.06
2018-03-27T04:19:58.626Z,3.02
2018-03-27T04:22:26.106Z,2.94
2018-03-27T04:24:53.562Z,2.88
2018-03-27T04:27:21.022Z,2.81
2018-03-27T04:29:48.502Z,2.79
2018-03-27T04:32:15.962Z,2.78
2018-03-27T04:34:43.418Z,2.74
2018-03-27T04:37:10.909Z,2.73
2018-03-27T04:39:38.377Z,2.73
2018-03-27T04:42:05.842Z,2.75
2018-03-27T04:44:33.391Z,2.75
2018-03-27T04:47:00.901Z,2.80
2018-03-27T04:49:28.521Z,2.82
2018-03-27T04:51:56.009Z,2.81
2018-03-27T04:54:23.470Z,2.82
2018-03-27T04:56:50.927Z,2.79
2018-03-27T04:59:18.425Z,2.76
2018-03-27T05:01:45.877Z,2.73
2018-03-27T05:04:13.365Z,2.75
2018-03-27T05:06:40.840Z,2.84
2018-03-27T05:09:08.395Z,2.91
2018-03-27T05:11:35.883Z,2.94
2018-03-27T05:14:03.444Z,2.77
2018-03-27T05:16:30.957Z,2.67
2018-03-27T05:18:58.506Z,2.59
2018-03-27T05:21:25.978Z,2.56
2018-03-27T05:23:53.534Z,2.60
2018-03-27T05:26:21.009Z,2.62
2018-03-27T05:28:48.464Z,2.56
2018-03-27T05:31:16.006Z,2.51
2018-03-27T05:33:43.504Z,2.52
2018-03-27T05:36:10.984Z,2.55
2018-03-27T05:38:38.479Z,2.47
2018-03-27T05:41:05.978Z,2.46
2018-03-27T05:43:33.513Z,2.50
2018-03-27T05:46:00.993Z,2.55
2018-03-27T05:48:28.546Z,2.64
2018-03-27T05:50:56.092Z,2.71
2018-03-27T05:53:23.640Z,2.78
2018-03-27T05:55:51.147Z,2.81
2018-03-27T05:58:18.692Z,2.84
2018-03-27T06:00:46.203Z,2.84
2018-03-27T06:03:13.717Z,2.88
2018-03-27T06:05:41.229Z,3.02
2018-03-27T06:08:08.697Z,3.11
2018-03-27T06:10:36.153Z,3.20
2018-03-27T06:13:03.646Z,3.23
2018-03-27T06:15:31.141Z,3.38
2018-03-27T06:17:58.594Z,3.52
2018-03-27T06:20:26.065Z,3.58
2018-03-27T06:22:53.527Z,3.54
2018-03-27T06:25:21.050Z,3.61
2018-03-27T06:27:48.582Z,3.58
2018-03-27T06:30:16.142Z,3.51
2018-03-27T06:32:43.690Z,3.55
2018-03-27T06:35:11.146Z,3.56
2018-03-27T06:37:38.596Z,3.61
2018-03-27T06:40:06.131Z,3.69
2018-03-27T06:42:33.614Z,3.78
2018-03-27T06:45:01.092Z,3.80
2018-03-27T06:47:28.545Z,3.77
2018-03-27T06:49:56.040Z,3.83
2018-03-27T06:52:23.491Z,4.05
2018-03-27T06:54:50.953Z,4.20
2018-03-27T06:57:18.430Z,4.52
2018-03-27T06:59:45.884Z,4.65
2018-03-27T07:02:13.362Z,4.50
2018-03-27T07:04:40.891Z,4.42
2018-03-27T07:07:08.372Z,4.36
2018-03-27T07:09:35.868Z,4.44
2018-03-27T07:12:03.357Z,4.49
2018-03-27T07:14:30.814Z,4.41
2018-03-27T07:16:58.301Z,4.49
2018-03-27T07:19:25.847Z,4.59
2018-03-27T07:21:53.330Z,4.64
2018-03-27T07:24:20.862Z,4.49
2018-03-27T07:26:48.355Z,4.35
2018-03-27T07:29:15.815Z,4.32
2018-03-27T07:31:43.271Z,4.44
2018-03-27T07:34:10.793Z,4.77
2018-03-27T07:36:38.257Z,4.96
2018-03-27T07:39:05.746Z,4.87
2018-03-27T07:41:33.269Z,4.86
2018-03-27T07:44:00.739Z,4.88
2018-03-27T07:46:28.231Z,4.86
2018-03-27T07:48:55.729Z,5.05
2018-03-27T07:51:23.194Z,5.26
2018-03-27T07:53:50.651Z,5.60
2018-03-27T07:56:18.139Z,5.82
2018-03-27T07:58:45.671Z,5.87
2018-03-27T08:01:13.138Z,5.95
2018-03-27T08:03:40.638Z,5.60
2018-03-27T08:06:08.102Z,5.21
2018-03-27T08:08:35.566Z,5.26
2018-03-27T08:11:03.066Z,5.25
2018-03-27T08:13:30.522Z,5.56
2018-03-27T08:15:58.124Z,5.64
2018-03-27T08:18:25.656Z,5.76
2018-03-27T08:20:53.197Z,5.69
2018-03-27T08:23:20.686Z,5.58
2018-03-27T08:25:48.155Z,5.21
2018-03-27T08:28:15.611Z,5.09
2018-03-27T08:30:43.088Z,4.89
2018-03-27T08:33:10.555Z,4.75
2018-03-27T08:35:38.024Z,4.64
2018-03-27T08:38:05.550Z,4.60
2018-03-27T08:40:33.077Z,4.97
2018-03-27T08:43:00.673Z,5.21
2018-03-27T08:45:28.147Z,5.22
2018-03-27T08:47:55.652Z,5.56
2018-03-27T08:50:23.150Z,5.73
2018-03-27T08:52:50.698Z,5.85
2018-03-27T08:55:18.185Z,5.81
2018-03-27T08:57:45.663Z,6.01
2018-03-27T09:00:13.118Z,6.00
2018-03-27T09:02:40.694Z,6.07
2018-03-27T09:05:08.181Z,6.22
2018-03-27T09:07:35.698Z,6.25
2018-03-27T09:10:03.186Z,5.71
2018-03-27T09:12:30.666Z,5.48
2018-03-27T09:14:58.123Z,5.38
2018-03-27T09:17:25.587Z,5.20
2018-03-27T09:19:53.110Z,5.09
2018-03-27T09:22:20.587Z,5.08
2018-03-27T09:24:48.047Z,5.05
2018-03-27T09:27:15.521Z,5.09
2018-03-27T09:29:42.989Z,5.27
2018-03-27T09:32:10.449Z,5.80
2018-03-27T09:34:37.929Z,6.52
2018-03-27T09:37:05.386Z,7.02
2018-03-27T09:39:32.845Z,7.40
2018-03-27T09:42:00.330Z,7.63
2018-03-27T09:44:27.863Z,7.73
2018-03-27T09:46:55.321Z,7.55
2018-03-27T09:49:22.804Z,7.05
2018-03-27T09:51:50.290Z,7.01
2018-03-27T09:54:17.845Z,6.94
2018-03-27T09:56:45.355Z,7.00
2018-03-27T09:59:12.833Z,6.99
2018-03-27T10:01:40.290Z,6.85
2018-03-27T10:04:07.780Z,6.93
2018-03-27T10:06:35.284Z,7.15
2018-03-27T10:09:02.745Z,7.48
2018-03-27T10:11:30.242Z,7.83
2018-03-27T10:13:57.714Z,8.18
2018-03-27T10:16:25.165Z,8.44
2018-03-27T10:18:52.677Z,8.77
2018-03-27T10:21:20.140Z,9.05
2018-03-27T10:23:47.636Z,9.52
2018-03-27T10:26:15.156Z,9.12
2018-03-27T10:28:42.715Z,8.81
2018-03-27T10:31:10.212Z,9.00
2018-03-27T10:33:37.773Z,9.14
2018-03-27T10:36:05.277Z,8.86
2018-03-27T10:38:32.860Z,8.61
2018-03-27T10:41:00.354Z,8.71
2018-03-27T10:43:27.809Z,9.17
2018-03-27T10:45:55.340Z,9.77
2018-03-27T10:48:22.810Z,9.56
2018-03-27T10:50:50.258Z,9.62
2018-03-27T10:53:17.747Z,9.60
2018-03-27T10:55:45.291Z,9.40
2018-03-27T10:58:12.749Z,8.92
2018-03-27T11:00:40.226Z,8.79
2018-03-27T11:03:07.682Z,8.65
2018-03-27T11:05:35.163Z,8.13
2018-03-27T11:08:02.650Z,7.86
2018-03-27T11:10:30.136Z,7.88
2018-03-27T11:12:57.603Z,7.87
2018-03-27T11:15:25.102Z,7.88
2018-03-27T11:17:52.579Z,8.01
2018-03-27T11:20:20.049Z,7.89
2018-03-27T11:22:47.517Z,7.95
2018-03-27T11:25:15.081Z,7.85
2018-03-27T11:27:42.551Z,7.73
2018-03-27T11:30:10.006Z,7.80
2018-03-27T11:32:37.502Z,7.74
2018-03-27T11:35:04.958Z,7.55
2018-03-27T11:37:32.418Z,7.38
2018-03-27T11:39:59.898Z,7.29
2018-03-27T11:42:27.350Z,7.30
2018-03-27T11:44:54.802Z,7.29
2018-03-27T11:47:22.278Z,7.26
2018-03-27T11:49:49.830Z,7.31
2018-03-27T11:52:17.312Z,7.40
2018-03-27T11:54:44.788Z,7.50
2018-03-27T11:57:12.246Z,7.62
2018-03-27T11:59:39.704Z,7.76
2018-03-27T12:02:07.203Z,8.01
2018-03-27T12:04:34.658Z,8.21
2018-03-27T12:07:02.258Z,8.49
2018-03-27T12:09:29.738Z,8.66
2018-03-27T12:11:57.198Z,8.61
2018-03-27T12:14:24.737Z,8.61
2018-03-27T12:16:52.194Z,8.71
2018-03-27T12:19:19.654Z,8.58
2018-03-27T12:21:47.146Z,8.17
2018-03-27T12:24:14.611Z,8.19
2018-03-27T12:26:42.072Z,8.48
2018-03-27T12:29:09.630Z,8.68
2018-03-27T12:31:37.095Z,8.55
2018-03-27T12:34:04.651Z,8.62
2018-03-27T12:36:32.314Z,8.62
2018-03-27T12:38:59.946Z,8.52
2018-03-27T12:41:27.444Z,8.58
2018-03-27T12:43:54.943Z,8.86
2018-03-27T12:46:22.401Z,8.93
2018-03-27T12:48:49.861Z,8.92
2018-03-27T12:51:17.382Z,8.89
2018-03-27T12:53:44.853Z,8.87
2018-03-27T12:56:12.320Z,8.66
2018-03-27T12:58:39.941Z,8.85
2018-03-27T13:01:07.416Z,9.04
2018-03-27T13:03:34.867Z,9.02
2018-03-27T13:06:02.370Z,9.05
2018-03-27T13:08:29.840Z,9.07
2018-03-27T13:10:57.306Z,9.06
2018-03-27T13:13:24.893Z,9.08
2018-03-27T13:15:52.350Z,9.06
2018-03-27T13:18:19.925Z,8.77
2018-03-27T13:20:47.390Z,8.86
2018-03-27T13:23:14.851Z,8.85
2018-03-27T13:25:42.382Z,8.95
2018-03-27T13:28:09.834Z,8.89
2018-03-27T13:30:37.277Z,8.74
2018-03-27T13:33:04.734Z,8.69
2018-03-27T13:35:32.318Z,8.69
2018-03-27T13:37:59.804Z,8.54
2018-03-27T13:40:27.318Z,8.33
2018-03-27T13:42:54.797Z,8.21
2018-03-27T13:45:22.339Z,8.16
2018-03-27T13:47:49.813Z,8.27
2018-03-27T13:50:17.314Z,8.36
2018-03-27T13:52:44.870Z,8.48
2018-03-27T13:55:12.323Z,9.00
2018-03-27T13:57:39.845Z,9.47
2018-03-27T14:00:07.395Z,9.66
2018-03-27T14:02:34.847Z,9.65
2018-03-27T14:05:02.421Z,9.87
2018-03-27T14:07:29.882Z,10.07
2018-03-27T14:09:57.377Z,10.34
2018-03-27T14:12:24.838Z,10.45
2018-03-27T14:14:52.298Z,9.96
2018-03-27T14:17:19.785Z,9.72
2018-03-27T14:19:47.268Z,9.48
2018-03-27T14:22:15.584Z,9.27
2018-03-27T14:24:43.082Z,9.40
2018-03-27T14:27:10.546Z,9.22
2018-03-27T14:29:38.015Z,8.92
2018-03-27T14:32:05.498Z,9.01
2018-03-27T14:34:32.958Z,9.13
2018-03-27T14:37:00.412Z,9.50
2018-03-27T14:39:27.899Z,9.68
2018-03-27T14:41:55.349Z,9.87
2018-03-27T14:44:22.837Z,9.85
2018-03-27T14:46:50.365Z,9.53
2018-03-27T14:49:17.786Z,9.67
2018-03-27T14:51:45.277Z,9.54
2018-03-27T14:54:12.838Z,9.64
2018-03-27T14:56:40.306Z,9.42
2018-03-27T14:59:07.758Z,9.31
2018-03-27T15:01:35.243Z,9.15
2018-03-27T15:04:02.764Z,9.13
2018-03-27T15:06:30.228Z,9.10
2018-03-27T15:08:57.712Z,9.02
2018-03-27T15:11:25.178Z,8.79
2018-03-27T15:13:52.633Z,9.06
2018-03-27T15:16:20.133Z,9.13
2018-03-27T15:18:47.738Z,9.30
2018-03-27T15:21:15.251Z,9.32
2018-03-27T15:23:42.840Z,9.07
2018-03-27T15:26:10.304Z,8.96
2018-03-27T15:28:37.751Z,8.88
2018-03-27T15:31:05.266Z,8.83
2018-03-27T15:33:32.873Z,8.76
2018-03-27T15:36:00.428Z,8.68
2018-03-27T15:38:27.890Z,8.58
2018-03-27T15:40:55.343Z,8.65
2018-03-27T15:43:22.824Z,8.67
2018-03-27T15:45:50.294Z,8.80
2018-03-27T15:48:17.746Z,8.93
2018-03-27T15:50:45.326Z,8.83
2018-03-27T15:53:12.777Z,8.95
2018-03-27T15:55:40.310Z,8.84
2018-03-27T15:58:07.785Z,8.75
2018-03-27T16:00:35.355Z,8.89
2018-03-27T16:03:02.863Z,9.04
2018-03-27T16:05:30.378Z,9.36
2018-03-27T16:07:57.940Z,9.88
2018-03-27T16:10:25.414Z,10.47
2018-03-27T16:12:52.878Z,10.69
2018-03-27T16:15:20.366Z,10.71
2018-03-27T16:17:47.899Z,10.64
2018-03-27T16:20:15.358Z,10.79
2018-03-27T16:22:42.825Z,11.04
2018-03-27T16:25:10.291Z,10.42
2018-03-27T16:27:37.783Z,9.49
2018-03-27T16:30:05.310Z,8.97
2018-03-27T16:32:32.766Z,8.64
2018-03-27T16:35:00.281Z,8.42
2018-03-27T16:37:27.776Z,8.17
2018-03-27T16:39:55.226Z,8.07
2018-03-27T16:42:22.706Z,7.87
2018-03-27T16:44:50.158Z,7.63
2018-03-27T16:47:17.606Z,7.44
2018-03-27T16:49:45.096Z,7.23
2018-03-27T16:52:12.569Z,7.14
2018-03-27T16:54:40.027Z,7.08
2018-03-27T16:57:07.591Z,6.94
2018-03-27T16:59:35.057Z,6.85
2018-03-27T17:02:02.518Z,6.83
2018-03-27T17:04:30.066Z,6.76
2018-03-27T17:06:57.515Z,6.69
2018-03-27T17:09:25.001Z,6.71
2018-03-27T17:11:52.539Z,6.67
2018-03-27T17:14:20.002Z,6.64
2018-03-27T17:16:47.458Z,6.56
2018-03-27T17:19:14.964Z,6.45
2018-03-27T17:21:42.466Z,6.36
2018-03-27T17:24:10.058Z,6.31
2018-03-27T17:26:37.526Z,6.26
2018-03-27T17:29:04.986Z,6.19
2018-03-27T17:31:32.523Z,6.14
2018-03-27T17:33:59.964Z,6.11
2018-03-27T17:36:27.674Z,6.03
2018-03-27T17:38:55.158Z,5.97
2018-03-27T17:41:22.644Z,5.94
2018-03-27T17:43:50.102Z,5.85
2018-03-27T17:46:17.595Z,5.75
2018-03-27T17:48:45.079Z,5.74
2018-03-27T17:51:12.580Z,5.69
2018-03-27T17:53:40.340Z,5.70
2018-03-27T17:56:07.799Z,5.68
2018-03-27T17:58:35.268Z,5.66
2018-03-27T18:01:02.773Z,5.59
2018-03-27T18:03:30.234Z,5.56
2018-03-27T18:05:57.684Z,5.51
2018-03-27T18:08:25.156Z,5.45
2018-03-27T18:10:52.608Z,5.39
2018-03-27T18:13:20.146Z,5.38
2018-03-27T18:15:47.607Z,5.34
2018-03-27T18:18:15.070Z,5.32
2018-03-27T18:20:42.543Z,5.34
2018-03-27T18:23:10.030Z,5.34
2018-03-27T18:25:37.483Z,5.34
2018-03-27T18:28:05.551Z,5.27
2018-03-27T18:30:33.022Z,5.20
2018-03-27T18:33:00.474Z,5.18
2018-03-27T18:35:28.033Z,5.13
2018-03-27T18:37:55.494Z,5.11
2018-03-27T18:40:23.049Z,5.11
2018-03-27T18:42:50.523Z,5.14
2018-03-27T18:45:18.006Z,5.12
2018-03-27T18:47:45.474Z,5.08
2018-03-27T18:50:12.942Z,5.02
2018-03-27T18:52:41.162Z,5.01
2018-03-27T18:55:08.632Z,4.99
2018-03-27T18:57:36.367Z,4.98
2018-03-27T19:00:03.964Z,4.94
2018-03-27T19:02:31.447Z,4.89
2018-03-27T19:04:58.955Z,4.86
2018-03-27T19:07:26.419Z,4.83
2018-03-27T19:09:53.875Z,4.82
2018-03-27T19:12:21.354Z,4.78
2018-03-27T19:14:48.846Z,4.73
2018-03-27T19:17:17.164Z,4.72
2018-03-27T19:19:44.643Z,4.70
2018-03-27T19:22:12.100Z,4.65
2018-03-27T19:24:39.566Z,4.62
2018-03-27T19:27:07.072Z,4.59
2018-03-27T19:29:34.546Z,4.59
2018-03-27T19:32:02.765Z,4.59
2018-03-27T19:34:30.257Z,4.65
2018-03-27T19:36:58.657Z,4.54
2018-03-27T19:39:26.118Z,4.49
2018-03-27T19:41:53.662Z,4.49
2018-03-27T19:44:21.239Z,4.49
2018-03-27T19:46:49.694Z,4.49
2018-03-27T19:49:17.175Z,4.50
2018-03-27T19:51:44.644Z,4.46
2018-03-27T19:54:12.173Z,4.41
2018-03-27T19:56:39.659Z,4.38
2018-03-27T19:59:07.177Z,4.34
2018-03-27T20:01:34.671Z,4.27
2018-03-27T20:04:02.147Z,4.24
2018-03-27T20:06:29.619Z,4.18
2018-03-27T20:08:57.117Z,4.15
2018-03-27T20:11:24.584Z,4.15
2018-03-27T20:13:52.040Z,4.12
2018-03-27T20:16:19.541Z,4.10
2018-03-27T20:18:47.063Z,4.01
2018-03-27T20:21:14.564Z,3.91
2018-03-27T20:23:42.067Z,3.87
2018-03-27T20:26:09.542Z,3.85
2018-03-27T20:28:37.048Z,3.77
2018-03-27T20:31:04.607Z,3.70
2018-03-27T20:33:32.075Z,3.68
2018-03-27T20:35:59.592Z,3.54
2018-03-27T20:38:27.042Z,3.47
2018-03-27T20:40:54.522Z,3.45
2018-03-27T20:43:22.051Z,3.48
2018-03-27T20:45:49.502Z,3.45
2018-03-27T20:48:17.000Z,3.37
2018-03-27T20:50:44.490Z,3.38
2018-03-27T20:53:11.946Z,3.36
2018-03-27T20:55:39.431Z,3.30
2018-03-27T20:58:06.982Z,3.22
2018-03-27T21:00:34.597Z,3.21
2018-03-27T21:03:02.154Z,3.18
2018-03-27T21:05:29.654Z,3.17
2018-03-27T21:07:57.135Z,3.13
2018-03-27T21:10:24.585Z,3.06
2018-03-27T21:12:52.115Z,3.05
2018-03-27T21:15:19.609Z,3.11
2018-03-27T21:17:47.057Z,3.09
2018-03-27T21:20:14.611Z,3.08
2018-03-27T21:22:42.095Z,3.14
2018-03-27T21:25:09.603Z,3.12
2018-03-27T21:27:37.080Z,3.05
2018-03-27T21:30:04.590Z,3.03
2018-03-27T21:32:32.121Z,3.03
2018-03-27T21:34:59.597Z,2.98
2018-03-27T21:37:27.063Z,2.95
2018-03-27T21:39:54.560Z,2.95
2018-03-27T21:42:22.034Z,2.95
2018-03-27T21:44:49.496Z,2.96
2018-03-27T21:47:16.978Z,2.90
2018-03-27T21:49:44.471Z,2.85
2018-03-27T21:52:12.085Z,2.83
2018-03-27T21:54:39.627Z,2.78
2018-03-27T21:57:07.205Z,2.80
2018-03-27T21:59:34.677Z,2.80
2018-03-27T22:02:02.204Z,2.77
2018-03-27T22:04:29.769Z,2.76
2018-03-27T22:06:57.313Z,2.67
2018-03-27T22:09:24.828Z,2.61
2018-03-27T22:11:52.376Z,2.61
2018-03-27T22:14:19.835Z,2.56
2018-03-27T22:16:47.403Z,2.54
2018-03-27T22:19:14.959Z,2.57
2018-03-27T22:21:42.425Z,2.59
2018-03-27T22:24:09.887Z,2.55
2018-03-27T22:26:37.374Z,2.53
2018-03-27T22:29:04.893Z,2.49
2018-03-27T22:31:32.398Z,2.44
2018-03-27T22:33:59.924Z,2.48
2018-03-27T22:36:27.379Z,2.46
2018-03-27T22:38:54.922Z,2.47
2018-03-27T22:41:22.419Z,2.45
2018-03-27T22:43:49.874Z,2.40
2018-03-27T22:46:17.334Z,2.40
2018-03-27T22:48:44.826Z,2.42
2018-03-27T22:51:12.294Z,2.40
2018-03-27T22:53:39.815Z,2.41
2018-03-27T22:56:07.321Z,2.42
2018-03-27T22:58:34.790Z,2.41
2018-03-27T23:01:02.245Z,2.45
2018-03-27T23:03:29.758Z,2.47
2018-03-27T23:05:57.306Z,2.42
2018-03-27T23:08:24.870Z,2.39
2018-03-27T23:10:52.427Z,2.39
2018-03-27T23:13:19.986Z,2.37
2018-03-27T23:15:47.441Z,2.37
2018-03-27T23:18:15.003Z,2.34
2018-03-27T23:20:42.465Z,2.37
2018-03-27T23:23:09.943Z,2.33
2018-03-27T23:25:37.427Z,2.30
2018-03-27T23:28:04.887Z,2.30
2018-03-27T23:30:32.349Z,2.35
2018-03-27T23:32:59.835Z,2.36
2018-03-27T23:35:29.355Z,2.40
2018-03-27T23:37:56.886Z,2.40
2018-03-27T23:40:24.374Z,2.31
2018-03-27T23:42:51.838Z,2.24
2018-03-27T23:45:19.290Z,2.20
2018-03-27T23:47:46.785Z,2.22
2018-03-27T23:50:14.249Z,2.27
2018-03-27T23:52:41.721Z,2.29
2018-03-27T23:55:09.227Z,2.30
2018-03-27T23:57:36.685Z,2.28
